sensor_id;sensor_type;location;lat;lon;timestamp;temperature;humidity
9466;DHT22;4771;48.726;9.006;2024-01-15T00:00:22;0.30;99.90
9466;DHT22;4771;48.726;9.006;2024-01-15T00:02:49;0.30;99.90
9466;DHT22;4771;48.726;9.006;2024-01-15T00:05:15;0.30;99.90
9466;DHT22;4771;48.726;9.006;2024-01-15T00:07:42;0.40;99.90
9466;DHT22;4771;48.726;9.006;2024-01-15T00:10:09;0.30;99.90
9466;DHT22;4771;48.726;9.006;2024-01-15T00:12:36;0.10;99.90
9466;DHT22;4771;48.726;9.006;2024-01-15T00:15:04;0.20;99.90
9466;DHT22;4771;48.726;9.006;2024-01-15T00:17:31;0.00;99.90
9466;DHT22;4771;48.726;9.006;2024-01-15T00:19:58;-0.20;99.90
9466;DHT22;4771;48.726;9.006;2024-01-15T00:22:26;-0.20;99.90
9466;DHT22;4771;48.726;9.006;2024-01-15T00:24:53;-0.30;99.90
9466;DHT22;4771;48.726;9.006;2024-01-15T00:27:20;-0.20;99.90
9466;DHT22;4771;48.726;9.006;2024-01-15T00:29:47;-0.20;99.90
9466;DHT22;4771;48.726;9.006;2024-01-15T00:32:13;-0.20;99.90
9466;DHT22;4771;48.726;9.006;2024-01-15T00:34:42;-0.10;99.90
9466;DHT22;4771;48.726;9.006;2024-01-15T00:37:09;-0.10;99.90
9466;DHT22;4771;48.726;9.006;2024-01-15T00:39:35;-0.10;99.90
9466;DHT22;4771;48.726;9.006;2024-01-15T00:42:02;-0.10;99.90
9466;DHT22;4771;48.726;9.006;2024-01-15T00:44:29;0.00;99.90
9466;DHT22;4771;48.726;9.006;2024-01-15T00:46:56;-0.10;99.90
9466;DHT22;4771;48.726;9.006;2024-01-15T00:49:23;-0.10;99.90
9466;DHT22;4771;48.726;9.006;2024-01-15T00:51:51;-0.10;99.90
9466;DHT22;4771;48.726;9.006;2024-01-15T00:54:18;-0.30;99.90
9466;DHT22;4771;48.726;9.006;2024-01-15T00:56:45;-0.30;99.90
9466;DHT22;4771;48.726;9.006;2024-01-15T00:59:12;-0.30;99.90
9466;DHT22;4771;48.726;9.006;2024-01-15T01:01:40;-0.30;99.90
9466;DHT22;4771;48.726;9.006;2024-01-15T01:04:08;-0.40;99.90
9466;DHT22;4771;48.726;9.006;2024-01-15T01:06:35;-0.30;99.90
9466;DHT22;4771;48.726;9.006;2024-01-15T01:09:03;-0.30;99.90
9466;DHT22;4771;48.726;9.006;2024-01-15T01:11:30;-0.40;99.90
9466;DHT22;4771;48.726;9.006;2024-01-15T01:13:57;-0.50;99.90
9466;DHT22;4771;48.726;9.006;2024-01-15T01:16:24;-0.50;99.90
9466;DHT22;4771;48.726;9.006;2024-01-15T01:18:51;-0.50;99.90
9466;DHT22;4771;48.726;9.006;2024-01-15T01:21:18;-0.60;99.90
9466;DHT22;4771;48.726;9.006;2024-01-15T01:23:44;-0.70;99.90
9466;DHT22;4771;48.726;9.006;2024-01-15T01:26:15;-0.70;99.90
9466;DHT22;4771;48.726;9.006;2024-01-15T01:28:42;-0.70;99.90
9466;DHT22;4771;48.726;9.006;2024-01-15T01:31:09;-0.60;99.90
9466;DHT22;4771;48.726;9.006;2024-01-15T01:33:35;-0.60;99.90
9466;DHT22;4771;48.726;9.006;2024-01-15T01:36:07;-0.50;99.90
9466;DHT22;4771;48.726;9.006;2024-01-15T01:38:34;-0.40;99.90
9466;DHT22;4771;48.726;9.006;2024-01-15T01:41:01;-0.30;99.90
9466;DHT22;4771;48.726;9.006;2024-01-15T01:43:29;-0.30;99.90
9466;DHT22;4771;48.726;9.006;2024-01-15T01:45:57;-0.20;99.90
9466;DHT22;4771;48.726;9.006;2024-01-15T01:48:25;-0.10;99.90
9466;DHT22;4771;48.726;9.006;2024-01-15T01:50:53;0.00;99.90
9466;DHT22;4771;48.726;9.006;2024-01-15T01:53:20;0.10;99.90
9466;DHT22;4771;48.726;9.006;2024-01-15T01:55:48;0.10;99.90
9466;DHT22;4771;48.726;9.006;2024-01-15T01:58:15;0.20;99.90
9466;DHT22;4771;48.726;9.006;2024-01-15T02:00:43;0.20;99.90
9466;DHT22;4771;48.726;9.006;2024-01-15T02:03:10;0.20;99.90
9466;DHT22;4771;48.726;9.006;2024-01-15T02:05:39;0.20;99.90
9466;DHT22;4771;48.726;9.006;2024-01-15T02:08:06;0.20;99.90
9466;DHT22;4771;48.726;9.006;2024-01-15T02:10:33;0.20;99.90
9466;DHT22;4771;48.726;9.006;2024-01-15T02:13:00;0.20;99.90
9466;DHT22;4771;48.726;9.006;2024-01-15T02:15:27;0.20;99.90
9466;DHT22;4771;48.726;9.006;2024-01-15T02:17:59;0.30;99.90
9466;DHT22;4771;48.726;9.006;2024-01-15T02:20:26;0.30;99.90
9466;DHT22;4771;48.726;9.006;2024-01-15T02:22:53;0.30;99.90
9466;DHT22;4771;48.726;9.006;2024-01-15T02:25:22;0.30;99.90
9466;DHT22;4771;48.726;9.006;2024-01-15T02:27:48;0.40;99.90
9466;DHT22;4771;48.726;9.006;2024-01-15T02:30:15;0.30;99.90
9466;DHT22;4771;48.726;9.006;2024-01-15T02:32:43;0.40;99.90
9466;DHT22;4771;48.726;9.006;2024-01-15T02:35:10;0.30;99.90
9466;DHT22;4771;48.726;9.006;2024-01-15T02:37:37;0.30;99.90
9466;DHT22;4771;48.726;9.006;2024-01-15T02:40:04;0.30;99.90
9466;DHT22;4771;48.726;9.006;2024-01-15T02:42:33;0.30;99.90
9466;DHT22;4771;48.726;9.006;2024-01-15T02:44:59;0.30;99.90
9466;DHT22;4771;48.726;9.006;2024-01-15T02:47:26;0.30;99.90
9466;DHT22;4771;48.726;9.006;2024-01-15T02:49:53;0.30;99.90
9466;DHT22;4771;48.726;9.006;2024-01-15T02:52:20;0.30;99.90
9466;DHT22;4771;48.726;9.006;2024-01-15T02:54:47;0.30;99.90
9466;DHT22;4771;48.726;9.006;2024-01-15T02:57:14;0.40;99.90
9466;DHT22;4771;48.726;9.006;2024-01-15T02:59:42;0.30;99.90
9466;DHT22;4771;48.726;9.006;2024-01-15T03:02:09;0.30;99.90
9466;DHT22;4771;48.726;9.006;2024-01-15T03:04:36;0.20;99.90
9466;DHT22;4771;48.726;9.006;2024-01-15T03:07:03;0.20;99.90
9466;DHT22;4771;48.726;9.006;2024-01-15T03:09:30;0.30;99.90
9466;DHT22;4771;48.726;9.006;2024-01-15T03:11:56;0.20;99.90
9466;DHT22;4771;48.726;9.006;2024-01-15T03:14:23;0.30;99.90
9466;DHT22;4771;48.726;9.006;2024-01-15T03:16:53;0.80;99.90
9466;DHT22;4771;48.726;9.006;2024-01-15T03:19:20;0.40;99.90
9466;DHT22;4771;48.726;9.006;2024-01-15T03:21:47;0.50;99.90
9466;DHT22;4771;48.726;9.006;2024-01-15T03:24:14;0.50;99.90
9466;DHT22;4771;48.726;9.006;2024-01-15T03:26:40;0.30;99.90
9466;DHT22;4771;48.726;9.006;2024-01-15T03:29:07;0.30;99.90
9466;DHT22;4771;48.726;9.006;2024-01-15T03:31:34;0.30;99.90
9466;DHT22;4771;48.726;9.006;2024-01-15T03:34:03;0.30;99.90
9466;DHT22;4771;48.726;9.006;2024-01-15T03:36:29;0.40;99.90
9466;DHT22;4771;48.726;9.006;2024-01-15T03:38:56;0.40;99.90
9466;DHT22;4771;48.726;9.006;2024-01-15T03:41:23;0.50;99.90
9466;DHT22;4771;48.726;9.006;2024-01-15T03:43:50;0.50;99.90
9466;DHT22;4771;48.726;9.006;2024-01-15T03:46:17;0.60;99.90
9466;DHT22;4771;48.726;9.006;2024-01-15T03:48:44;0.60;99.90
9466;DHT22;4771;48.726;9.006;2024-01-15T03:51:12;0.60;99.90
9466;DHT22;4771;48.726;9.006;2024-01-15T03:53:39;0.70;99.90
9466;DHT22;4771;48.726;9.006;2024-01-15T03:56:06;0.40;99.90
9466;DHT22;4771;48.726;9.006;2024-01-15T03:58:32;0.40;99.90
9466;DHT22;4771;48.726;9.006;2024-01-15T04:00:59;0.30;99.90
9466;DHT22;4771;48.726;9.006;2024-01-15T04:03:26;0.30;99.90
9466;DHT22;4771;48.726;9.006;2024-01-15T04:05:53;0.30;99.90
9466;DHT22;4771;48.726;9.006;2024-01-15T04:08:21;0.30;99.90
9466;DHT22;4771;48.726;9.006;2024-01-15T04:10:48;0.30;99.90
9466;DHT22;4771;48.726;9.006;2024-01-15T04:13:15;0.40;99.90
9466;DHT22;4771;48.726;9.006;2024-01-15T04:15:42;0.40;99.90
9466;DHT22;4771;48.726;9.006;2024-01-15T04:18:09;0.40;99.90
9466;DHT22;4771;48.726;9.006;2024-01-15T04:20:36;0.40;99.90
9466;DHT22;4771;48.726;9.006;2024-01-15T04:23:03;0.40;99.90
9466;DHT22;4771;48.726;9.006;2024-01-15T04:25:31;0.60;99.90
9466;DHT22;4771;48.726;9.006;2024-01-15T04:27:58;0.60;99.90
9466;DHT22;4771;48.726;9.006;2024-01-15T04:30:25;0.40;99.90
9466;DHT22;4771;48.726;9.006;2024-01-15T04:32:52;0.20;99.90
9466;DHT22;4771;48.726;9.006;2024-01-15T04:35:19;0.20;99.90
9466;DHT22;4771;48.726;9.006;2024-01-15T04:37:45;0.20;99.90
9466;DHT22;4771;48.726;9.006;2024-01-15T04:40:13;0.30;99.90
9466;DHT22;4771;48.726;9.006;2024-01-15T04:42:41;0.20;99.90
9466;DHT22;4771;48.726;9.006;2024-01-15T04:45:09;0.20;99.90
9466;DHT22;4771;48.726;9.006;2024-01-15T04:47:35;0.30;99.90
9466;DHT22;4771;48.726;9.006;2024-01-15T04:50:03;0.30;99.90
9466;DHT22;4771;48.726;9.006;2024-01-15T04:52:31;0.40;99.90
9466;DHT22;4771;48.726;9.006;2024-01-15T04:54:58;0.50;99.90
9466;DHT22;4771;48.726;9.006;2024-01-15T04:57:24;0.60;99.90
9466;DHT22;4771;48.726;9.006;2024-01-15T04:59:53;0.60;99.90
9466;DHT22;4771;48.726;9.006;2024-01-15T05:02:19;0.70;99.90
9466;DHT22;4771;48.726;9.006;2024-01-15T05:04:46;0.70;99.90
9466;DHT22;4771;48.726;9.006;2024-01-15T05:07:13;0.70;99.90
9466;DHT22;4771;48.726;9.006;2024-01-15T05:09:40;0.80;99.90
9466;DHT22;4771;48.726;9.006;2024-01-15T05:12:07;0.80;99.90
9466;DHT22;4771;48.726;9.006;2024-01-15T05:14:34;0.80;99.90
9466;DHT22;4771;48.726;9.006;2024-01-15T05:17:03;0.90;99.90
9466;DHT22;4771;48.726;9.006;2024-01-15T05:19:30;0.90;99.90
9466;DHT22;4771;48.726;9.006;2024-01-15T05:21:56;0.90;99.90
9466;DHT22;4771;48.726;9.006;2024-01-15T05:24:24;0.90;99.90
9466;DHT22;4771;48.726;9.006;2024-01-15T05:26:52;0.90;99.90
9466;DHT22;4771;48.726;9.006;2024-01-15T05:29:18;0.90;99.90
9466;DHT22;4771;48.726;9.006;2024-01-15T05:31:45;1.00;99.90
9466;DHT22;4771;48.726;9.006;2024-01-15T05:34:13;1.00;99.90
9466;DHT22;4771;48.726;9.006;2024-01-15T05:36:40;1.00;99.90
9466;DHT22;4771;48.726;9.006;2024-01-15T05:39:07;1.00;99.90
9466;DHT22;4771;48.726;9.006;2024-01-15T05:41:34;1.00;99.90
9466;DHT22;4771;48.726;9.006;2024-01-15T05:44:01;1.00;99.90
9466;DHT22;4771;48.726;9.006;2024-01-15T05:46:28;1.00;99.90
9466;DHT22;4771;48.726;9.006;2024-01-15T05:48:55;1.00;99.90
9466;DHT22;4771;48.726;9.006;2024-01-15T05:51:23;1.00;99.90
9466;DHT22;4771;48.726;9.006;2024-01-15T05:53:50;0.90;99.90
9466;DHT22;4771;48.726;9.006;2024-01-15T05:56:17;0.90;99.90
9466;DHT22;4771;48.726;9.006;2024-01-15T05:58:43;1.00;99.90
9466;DHT22;4771;48.726;9.006;2024-01-15T06:01:10;1.00;99.90
9466;DHT22;4771;48.726;9.006;2024-01-15T06:03:37;1.00;99.90
9466;DHT22;4771;48.726;9.006;2024-01-15T06:06:04;1.00;99.90
9466;DHT22;4771;48.726;9.006;2024-01-15T06:08:33;1.00;99.90
9466;DHT22;4771;48.726;9.006;2024-01-15T06:10:59;1.00;99.90
9466;DHT22;4771;48.726;9.006;2024-01-15T06:13:26;1.10;99.90
9466;DHT22;4771;48.726;9.006;2024-01-15T06:15:53;1.00;99.90
9466;DHT22;4771;48.726;9.006;2024-01-15T06:18:20;1.00;99.90
9466;DHT22;4771;48.726;9.006;2024-01-15T06:20:47;1.00;99.90
9466;DHT22;4771;48.726;9.006;2024-01-15T06:23:13;1.60;99.90
9466;DHT22;4771;48.726;9.006;2024-01-15T06:25:42;1.00;99.90
9466;DHT22;4771;48.726;9.006;2024-01-15T06:28:08;1.00;99.90
9466;DHT22;4771;48.726;9.006;2024-01-15T06:30:35;1.00;99.90
9466;DHT22;4771;48.726;9.006;2024-01-15T06:33:02;1.00;99.90
9466;DHT22;4771;48.726;9.006;2024-01-15T06:35:29;1.90;99.90
9466;DHT22;4771;48.726;9.006;2024-01-15T06:37:56;0.90;99.90
9466;DHT22;4771;48.726;9.006;2024-01-15T06:40:23;0.90;99.90
9466;DHT22;4771;48.726;9.006;2024-01-15T06:42:51;0.90;99.90
9466;DHT22;4771;48.726;9.006;2024-01-15T06:45:18;0.90;99.90
9466;DHT22;4771;48.726;9.006;2024-01-15T06:47:45;0.90;99.90
9466;DHT22;4771;48.726;9.006;2024-01-15T06:50:12;1.00;99.90
9466;DHT22;4771;48.726;9.006;2024-01-15T06:52:39;1.00;99.90
9466;DHT22;4771;48.726;9.006;2024-01-15T06:55:06;1.10;99.90
9466;DHT22;4771;48.726;9.006;2024-01-15T06:57:33;1.10;99.90
9466;DHT22;4771;48.726;9.006;2024-01-15T07:00:02;1.00;99.90
9466;DHT22;4771;48.726;9.006;2024-01-15T07:02:33;1.10;99.90
9466;DHT22;4771;48.726;9.006;2024-01-15T07:05:00;1.10;99.90
9466;DHT22;4771;48.726;9.006;2024-01-15T07:07:26;1.10;99.90
9466;DHT22;4771;48.726;9.006;2024-01-15T07:09:55;1.10;99.90
9466;DHT22;4771;48.726;9.006;2024-01-15T07:12:22;1.10;99.90
9466;DHT22;4771;48.726;9.006;2024-01-15T07:14:49;1.10;99.90
9466;DHT22;4771;48.726;9.006;2024-01-15T07:17:17;1.00;99.90
9466;DHT22;4771;48.726;9.006;2024-01-15T07:19:44;1.00;99.90
9466;DHT22;4771;48.726;9.006;2024-01-15T07:22:12;1.10;99.90
9466;DHT22;4771;48.726;9.006;2024-01-15T07:24:39;1.00;99.90
9466;DHT22;4771;48.726;9.006;2024-01-15T07:27:06;1.00;99.90
9466;DHT22;4771;48.726;9.006;2024-01-15T07:29:34;1.00;99.90
9466;DHT22;4771;48.726;9.006;2024-01-15T07:32:03;1.10;99.90
9466;DHT22;4771;48.726;9.006;2024-01-15T07:34:31;0.90;99.90
9466;DHT22;4771;48.726;9.006;2024-01-15T07:36:58;1.00;99.90
9466;DHT22;4771;48.726;9.006;2024-01-15T07:39:25;1.00;99.90
9466;DHT22;4771;48.726;9.006;2024-01-15T07:41:54;1.00;99.90
9466;DHT22;4771;48.726;9.006;2024-01-15T07:44:21;1.00;99.90
9466;DHT22;4771;48.726;9.006;2024-01-15T07:46:48;1.00;99.90
9466;DHT22;4771;48.726;9.006;2024-01-15T07:49:15;1.00;99.90
9466;DHT22;4771;48.726;9.006;2024-01-15T07:51:43;1.10;99.90
9466;DHT22;4771;48.726;9.006;2024-01-15T07:54:10;1.00;99.90
9466;DHT22;4771;48.726;9.006;2024-01-15T07:56:53;1.10;99.90
9466;DHT22;4771;48.726;9.006;2024-01-15T07:59:19;1.20;99.90
9466;DHT22;4771;48.726;9.006;2024-01-15T08:01:46;1.10;99.90
9466;DHT22;4771;48.726;9.006;2024-01-15T08:04:13;1.10;99.90
9466;DHT22;4771;48.726;9.006;2024-01-15T08:06:40;1.10;99.90
9466;DHT22;4771;48.726;9.006;2024-01-15T08:09:09;1.10;99.90
9466;DHT22;4771;48.726;9.006;2024-01-15T08:11:36;1.10;99.90
9466;DHT22;4771;48.726;9.006;2024-01-15T08:14:05;1.20;99.90
9466;DHT22;4771;48.726;9.006;2024-01-15T08:16:32;1.30;99.90
9466;DHT22;4771;48.726;9.006;2024-01-15T08:18:59;1.30;99.90
9466;DHT22;4771;48.726;9.006;2024-01-15T08:21:26;1.30;99.90
9466;DHT22;4771;48.726;9.006;2024-01-15T08:23:55;1.20;99.90
9466;DHT22;4771;48.726;9.006;2024-01-15T08:26:24;1.20;99.90
9466;DHT22;4771;48.726;9.006;2024-01-15T08:28:50;1.30;99.90
9466;DHT22;4771;48.726;9.006;2024-01-15T08:31:17;1.40;99.90
9466;DHT22;4771;48.726;9.006;2024-01-15T08:33:44;0.20;99.90
9466;DHT22;4771;48.726;9.006;2024-01-15T08:36:11;1.40;99.90
9466;DHT22;4771;48.726;9.006;2024-01-15T08:38:38;1.30;99.90
9466;DHT22;4771;48.726;9.006;2024-01-15T08:41:05;1.30;99.90
9466;DHT22;4771;48.726;9.006;2024-01-15T08:43:33;1.20;99.90
9466;DHT22;4771;48.726;9.006;2024-01-15T08:45:59;1.20;99.90
9466;DHT22;4771;48.726;9.006;2024-01-15T08:48:27;1.20;99.90
9466;DHT22;4771;48.726;9.006;2024-01-15T08:50:54;1.10;99.90
9466;DHT22;4771;48.726;9.006;2024-01-15T08:53:22;1.00;99.90
9466;DHT22;4771;48.726;9.006;2024-01-15T08:55:49;0.90;99.90
9466;DHT22;4771;48.726;9.006;2024-01-15T08:58:16;1.00;99.90
9466;DHT22;4771;48.726;9.006;2024-01-15T09:00:44;1.00;99.90
9466;DHT22;4771;48.726;9.006;2024-01-15T09:03:11;1.00;99.90
9466;DHT22;4771;48.726;9.006;2024-01-15T09:05:38;1.10;99.90
9466;DHT22;4771;48.726;9.006;2024-01-15T09:08:06;1.00;99.90
9466;DHT22;4771;48.726;9.006;2024-01-15T09:10:33;1.10;99.90
9466;DHT22;4771;48.726;9.006;2024-01-15T09:13:00;1.10;99.90
9466;DHT22;4771;48.726;9.006;2024-01-15T09:15:26;1.10;99.90
9466;DHT22;4771;48.726;9.006;2024-01-15T09:17:55;1.00;99.90
9466;DHT22;4771;48.726;9.006;2024-01-15T09:20:23;1.10;99.90
9466;DHT22;4771;48.726;9.006;2024-01-15T09:22:51;1.20;99.90
9466;DHT22;4771;48.726;9.006;2024-01-15T09:25:18;1.20;99.90
9466;DHT22;4771;48.726;9.006;2024-01-15T09:27:45;1.20;99.90
9466;DHT22;4771;48.726;9.006;2024-01-15T09:30:12;1.20;99.90
9466;DHT22;4771;48.726;9.006;2024-01-15T09:32:39;1.30;99.90
9466;DHT22;4771;48.726;9.006;2024-01-15T09:35:08;1.30;99.90
9466;DHT22;4771;48.726;9.006;2024-01-15T09:37:35;1.40;99.90
9466;DHT22;4771;48.726;9.006;2024-01-15T09:40:03;1.40;99.90
9466;DHT22;4771;48.726;9.006;2024-01-15T09:42:30;1.50;99.90
9466;DHT22;4771;48.726;9.006;2024-01-15T09:44:57;1.50;99.90
9466;DHT22;4771;48.726;9.006;2024-01-15T09:47:24;1.60;99.90
9466;DHT22;4771;48.726;9.006;2024-01-15T09:49:51;1.70;99.90
9466;DHT22;4771;48.726;9.006;2024-01-15T09:52:20;1.70;99.90
9466;DHT22;4771;48.726;9.006;2024-01-15T09:54:49;1.80;99.90
9466;DHT22;4771;48.726;9.006;2024-01-15T09:57:16;1.70;99.90
9466;DHT22;4771;48.726;9.006;2024-01-15T09:59:43;1.60;99.90
9466;DHT22;4771;48.726;9.006;2024-01-15T10:02:12;1.50;99.90
9466;DHT22;4771;48.726;9.006;2024-01-15T10:04:42;1.60;99.90
9466;DHT22;4771;48.726;9.006;2024-01-15T10:07:11;1.60;99.90
9466;DHT22;4771;48.726;9.006;2024-01-15T10:09:42;1.50;99.90
9466;DHT22;4771;48.726;9.006;2024-01-15T10:12:10;1.40;99.90
9466;DHT22;4771;48.726;9.006;2024-01-15T10:14:37;1.40;99.90
9466;DHT22;4771;48.726;9.006;2024-01-15T10:17:12;1.40;99.90
9466;DHT22;4771;48.726;9.006;2024-01-15T10:19:40;1.40;99.90
9466;DHT22;4771;48.726;9.006;2024-01-15T10:22:08;1.30;99.90
9466;DHT22;4771;48.726;9.006;2024-01-15T10:24:35;1.30;99.90
9466;DHT22;4771;48.726;9.006;2024-01-15T10:27:07;1.40;99.90
9466;DHT22;4771;48.726;9.006;2024-01-15T10:29:34;1.50;99.90
9466;DHT22;4771;48.726;9.006;2024-01-15T10:32:02;1.50;99.90
9466;DHT22;4771;48.726;9.006;2024-01-15T10:34:30;1.70;99.90
9466;DHT22;4771;48.726;9.006;2024-01-15T10:36:57;1.70;99.90
9466;DHT22;4771;48.726;9.006;2024-01-15T10:39:24;1.80;99.90
9466;DHT22;4771;48.726;9.006;2024-01-15T10:41:51;1.80;99.90
9466;DHT22;4771;48.726;9.006;2024-01-15T10:44:19;1.60;99.90
9466;DHT22;4771;48.726;9.006;2024-01-15T10:46:46;1.60;99.90
9466;DHT22;4771;48.726;9.006;2024-01-15T10:49:14;1.70;99.90
9466;DHT22;4771;48.726;9.006;2024-01-15T10:51:42;1.70;99.90
9466;DHT22;4771;48.726;9.006;2024-01-15T10:54:09;1.60;99.90
9466;DHT22;4771;48.726;9.006;2024-01-15T10:56:39;1.50;99.90
9466;DHT22;4771;48.726;9.006;2024-01-15T10:59:07;1.50;99.90
9466;DHT22;4771;48.726;9.006;2024-01-15T11:01:37;1.60;99.90
9466;DHT22;4771;48.726;9.006;2024-01-15T11:04:04;1.70;99.90
9466;DHT22;4771;48.726;9.006;2024-01-15T11:06:42;1.70;99.90
9466;DHT22;4771;48.726;9.006;2024-01-15T11:09:09;1.80;99.90
9466;DHT22;4771;48.726;9.006;2024-01-15T11:11:40;1.70;99.90
9466;DHT22;4771;48.726;9.006;2024-01-15T11:14:07;1.70;99.90
9466;DHT22;4771;48.726;9.006;2024-01-15T11:16:55;1.60;99.90
9466;DHT22;4771;48.726;9.006;2024-01-15T11:19:22;1.60;99.90
9466;DHT22;4771;48.726;9.006;2024-01-15T11:21:49;1.60;99.90
9466;DHT22;4771;48.726;9.006;2024-01-15T11:24:35;1.60;99.90
9466;DHT22;4771;48.726;9.006;2024-01-15T11:27:03;1.70;99.90
9466;DHT22;4771;48.726;9.006;2024-01-15T11:29:31;1.70;99.90
9466;DHT22;4771;48.726;9.006;2024-01-15T11:32:02;1.80;99.90
9466;DHT22;4771;48.726;9.006;2024-01-15T11:34:58;1.80;99.90
9466;DHT22;4771;48.726;9.006;2024-01-15T11:37:28;1.50;99.90
9466;DHT22;4771;48.726;9.006;2024-01-15T11:39:56;1.50;99.90
9466;DHT22;4771;48.726;9.006;2024-01-15T11:42:22;1.50;99.90
9466;DHT22;4771;48.726;9.006;2024-01-15T11:44:50;1.80;99.90
9466;DHT22;4771;48.726;9.006;2024-01-15T11:47:42;1.20;99.90
9466;DHT22;4771;48.726;9.006;2024-01-15T11:50:12;1.20;99.90
9466;DHT22;4771;48.726;9.006;2024-01-15T11:52:39;1.30;99.90
9466;DHT22;4771;48.726;9.006;2024-01-15T11:55:12;1.20;99.90
9466;DHT22;4771;48.726;9.006;2024-01-15T11:57:46;1.20;99.90
9466;DHT22;4771;48.726;9.006;2024-01-15T12:00:14;1.10;99.90
9466;DHT22;4771;48.726;9.006;2024-01-15T12:02:44;1.10;99.90
9466;DHT22;4771;48.726;9.006;2024-01-15T12:05:12;0.20;99.90
9466;DHT22;4771;48.726;9.006;2024-01-15T12:07:39;1.20;99.90
9466;DHT22;4771;48.726;9.006;2024-01-15T12:10:09;1.20;99.90
9466;DHT22;4771;48.726;9.006;2024-01-15T12:12:52;1.30;99.90
9466;DHT22;4771;48.726;9.006;2024-01-15T12:15:20;1.30;99.90
9466;DHT22;4771;48.726;9.006;2024-01-15T12:17:48;1.30;99.90
9466;DHT22;4771;48.726;9.006;2024-01-15T12:20:15;1.30;99.90
9466;DHT22;4771;48.726;9.006;2024-01-15T12:22:44;1.40;99.90
9466;DHT22;4771;48.726;9.006;2024-01-15T12:25:11;1.20;99.90
9466;DHT22;4771;48.726;9.006;2024-01-15T12:27:38;1.20;99.90
9466;DHT22;4771;48.726;9.006;2024-01-15T12:30:06;1.20;99.90
9466;DHT22;4771;48.726;9.006;2024-01-15T12:32:34;1.20;99.90
9466;DHT22;4771;48.726;9.006;2024-01-15T12:35:03;1.20;99.90
9466;DHT22;4771;48.726;9.006;2024-01-15T12:37:30;1.20;99.90
9466;DHT22;4771;48.726;9.006;2024-01-15T12:39:59;1.20;99.90
9466;DHT22;4771;48.726;9.006;2024-01-15T12:42:26;1.20;99.90
9466;DHT22;4771;48.726;9.006;2024-01-15T12:44:55;1.10;99.90
9466;DHT22;4771;48.726;9.006;2024-01-15T12:47:22;1.00;99.90
9466;DHT22;4771;48.726;9.006;2024-01-15T12:49:51;1.00;99.90
9466;DHT22;4771;48.726;9.006;2024-01-15T12:52:21;0.90;99.90
9466;DHT22;4771;48.726;9.006;2024-01-15T12:54:48;1.00;99.90
9466;DHT22;4771;48.726;9.006;2024-01-15T12:57:16;1.00;99.90
9466;DHT22;4771;48.726;9.006;2024-01-15T12:59:43;1.00;99.90
9466;DHT22;4771;48.726;9.006;2024-01-15T13:02:11;1.10;99.90
9466;DHT22;4771;48.726;9.006;2024-01-15T13:04:38;1.10;99.90
9466;DHT22;4771;48.726;9.006;2024-01-15T13:07:05;1.20;99.90
9466;DHT22;4771;48.726;9.006;2024-01-15T13:09:33;1.10;99.90
9466;DHT22;4771;48.726;9.006;2024-01-15T13:12:01;1.20;99.90
9466;DHT22;4771;48.726;9.006;2024-01-15T13:14:28;1.20;99.90
9466;DHT22;4771;48.726;9.006;2024-01-15T13:16:55;1.20;99.90
9466;DHT22;4771;48.726;9.006;2024-01-15T13:19:24;1.20;99.90
9466;DHT22;4771;48.726;9.006;2024-01-15T13:21:51;1.90;99.90
9466;DHT22;4771;48.726;9.006;2024-01-15T13:24:19;1.10;99.90
9466;DHT22;4771;48.726;9.006;2024-01-15T13:26:47;0.90;99.90
9466;DHT22;4771;48.726;9.006;2024-01-15T13:29:14;0.90;99.90
9466;DHT22;4771;48.726;9.006;2024-01-15T13:31:40;0.80;99.90
9466;DHT22;4771;48.726;9.006;2024-01-15T13:34:08;0.90;99.90
9466;DHT22;4771;48.726;9.006;2024-01-15T13:36:35;0.90;99.90
9466;DHT22;4771;48.726;9.006;2024-01-15T13:39:04;0.90;99.90
9466;DHT22;4771;48.726;9.006;2024-01-15T13:41:34;0.90;99.90
9466;DHT22;4771;48.726;9.006;2024-01-15T13:44:02;1.00;99.90
9466;DHT22;4771;48.726;9.006;2024-01-15T13:46:29;1.10;99.90
9466;DHT22;4771;48.726;9.006;2024-01-15T13:48:56;1.20;99.90
9466;DHT22;4771;48.726;9.006;2024-01-15T13:51:23;1.10;99.90
9466;DHT22;4771;48.726;9.006;2024-01-15T13:53:50;1.20;99.90
9466;DHT22;4771;48.726;9.006;2024-01-15T13:56:17;1.30;99.90
9466;DHT22;4771;48.726;9.006;2024-01-15T13:58:44;1.10;99.90
9466;DHT22;4771;48.726;9.006;2024-01-15T14:01:12;1.20;99.90
9466;DHT22;4771;48.726;9.006;2024-01-15T14:03:39;1.20;99.90
9466;DHT22;4771;48.726;9.006;2024-01-15T14:06:06;1.10;99.90
9466;DHT22;4771;48.726;9.006;2024-01-15T14:08:34;1.10;99.90
9466;DHT22;4771;48.726;9.006;2024-01-15T14:11:02;1.10;99.90
9466;DHT22;4771;48.726;9.006;2024-01-15T14:13:29;1.10;99.90
9466;DHT22;4771;48.726;9.006;2024-01-15T14:15:56;1.20;99.90
9466;DHT22;4771;48.726;9.006;2024-01-15T14:18:24;1.20;99.90
9466;DHT22;4771;48.726;9.006;2024-01-15T14:20:51;1.20;99.90
9466;DHT22;4771;48.726;9.006;2024-01-15T14:23:19;1.30;99.90
9466;DHT22;4771;48.726;9.006;2024-01-15T14:25:45;1.20;99.90
9466;DHT22;4771;48.726;9.006;2024-01-15T14:28:12;1.20;99.90
9466;DHT22;4771;48.726;9.006;2024-01-15T14:30:39;1.30;99.90
9466;DHT22;4771;48.726;9.006;2024-01-15T14:33:06;1.30;99.90
9466;DHT22;4771;48.726;9.006;2024-01-15T14:35:35;1.40;99.90
9466;DHT22;4771;48.726;9.006;2024-01-15T14:38:01;1.20;99.90
9466;DHT22;4771;48.726;9.006;2024-01-15T14:40:28;1.10;99.90
9466;DHT22;4771;48.726;9.006;2024-01-15T14:42:55;1.20;99.90
9466;DHT22;4771;48.726;9.006;2024-01-15T14:45:22;1.00;99.90
9466;DHT22;4771;48.726;9.006;2024-01-15T14:47:49;0.90;99.90
9466;DHT22;4771;48.726;9.006;2024-01-15T14:50:16;0.80;99.90
9466;DHT22;4771;48.726;9.006;2024-01-15T14:52:44;0.70;99.90
9466;DHT22;4771;48.726;9.006;2024-01-15T14:55:11;0.60;99.90
9466;DHT22;4771;48.726;9.006;2024-01-15T14:57:38;0.60;99.90
9466;DHT22;4771;48.726;9.006;2024-01-15T15:00:06;0.60;99.90
9466;DHT22;4771;48.726;9.006;2024-01-15T15:02:35;0.60;99.90
9466;DHT22;4771;48.726;9.006;2024-01-15T15:05:03;0.50;99.90
9466;DHT22;4771;48.726;9.006;2024-01-15T15:07:30;0.40;99.90
9466;DHT22;4771;48.726;9.006;2024-01-15T15:09:58;0.40;99.90
9466;DHT22;4771;48.726;9.006;2024-01-15T15:12:25;0.40;99.90
9466;DHT22;4771;48.726;9.006;2024-01-15T15:14:52;0.40;99.90
9466;DHT22;4771;48.726;9.006;2024-01-15T15:17:19;0.20;99.90
9466;DHT22;4771;48.726;9.006;2024-01-15T15:19:46;0.30;99.90
9466;DHT22;4771;48.726;9.006;2024-01-15T15:22:13;0.30;99.90
9466;DHT22;4771;48.726;9.006;2024-01-15T15:24:40;0.20;99.90
9466;DHT22;4771;48.726;9.006;2024-01-15T15:27:11;0.20;99.90
9466;DHT22;4771;48.726;9.006;2024-01-15T15:29:38;0.20;99.90
9466;DHT22;4771;48.726;9.006;2024-01-15T15:32:05;0.30;99.90
9466;DHT22;4771;48.726;9.006;2024-01-15T15:34:31;0.20;99.90
9466;DHT22;4771;48.726;9.006;2024-01-15T15:36:58;0.20;99.90
9466;DHT22;4771;48.726;9.006;2024-01-15T15:39:25;0.20;99.90
9466;DHT22;4771;48.726;9.006;2024-01-15T15:41:52;0.30;99.90
9466;DHT22;4771;48.726;9.006;2024-01-15T15:44:20;0.10;99.90
9466;DHT22;4771;48.726;9.006;2024-01-15T15:46:48;-0.10;99.90
9466;DHT22;4771;48.726;9.006;2024-01-15T15:49:15;-0.20;99.90
9466;DHT22;4771;48.726;9.006;2024-01-15T15:51:42;-0.30;99.90
9466;DHT22;4771;48.726;9.006;2024-01-15T15:54:09;-0.30;99.90
9466;DHT22;4771;48.726;9.006;2024-01-15T15:56:37;-0.30;99.90
9466;DHT22;4771;48.726;9.006;2024-01-15T15:59:04;-0.30;99.90
9466;DHT22;4771;48.726;9.006;2024-01-15T16:01:36;-0.30;99.90
9466;DHT22;4771;48.726;9.006;2024-01-15T16:04:03;-0.20;99.90
9466;DHT22;4771;48.726;9.006;2024-01-15T16:06:30;-0.20;99.90
9466;DHT22;4771;48.726;9.006;2024-01-15T16:08:57;-0.10;99.90
9466;DHT22;4771;48.726;9.006;2024-01-15T16:11:24;-0.10;99.90
9466;DHT22;4771;48.726;9.006;2024-01-15T16:13:50;0.00;99.90
9466;DHT22;4771;48.726;9.006;2024-01-15T16:16:17;0.00;99.90
9466;DHT22;4771;48.726;9.006;2024-01-15T16:18:46;0.00;99.90